Time;durP1;ratioP1;P1;durP2;ratioP2;P2;SDS_P1;SDS_P2;PMS_P1;PMS_P2;Temp;Humidity;BMP_temperature;BMP_pressure;BME280_temperature;BME280_humidity;BME280_pressure;Samples;Min_cycle;Max_cycle;Signal;HPM_P1;HPM_P2
2024/04/07 00:01:50;;;;;;;3.08;1.65;;;17.80;99.10;;;;;;4981355;28;20489;-92
2024/04/07 00:04:15;;;;;;;2.78;1.52;;;17.80;99.10;;;;;;4997959;28;20076;-91
2024/04/07 00:06:42;;;;;;;2.33;1.60;;;17.80;99.00;;;;;;5000373;28;20033;-91
2024/04/07 00:09:08;;;;;;;2.65;1.60;;;17.80;99.00;;;;;;4981161;28;20026;-92
2024/04/07 00:11:33;;;;;;;3.03;1.60;;;17.80;99.00;;;;;;5009441;28;20034;-92
2024/04/07 00:13:59;;;;;;;3.25;1.90;;;17.80;99.10;;;;;;4981463;28;20050;-92
2024/04/07 00:16:24;;;;;;;3.25;1.60;;;17.80;99.10;;;;;;4981623;28;20414;-91
2024/04/07 00:18:50;;;;;;;2.80;1.63;;;17.80;99.10;;;;;;4997025;28;20047;-92
2024/04/07 00:21:16;;;;;;;3.83;1.67;;;17.80;99.00;;;;;;4981120;28;20042;-92
2024/04/07 00:23:41;;;;;;;2.80;1.63;;;17.80;99.00;;;;;;4981223;28;20027;-93
2024/04/07 00:26:07;;;;;;;3.45;1.83;;;17.80;99.00;;;;;;4946741;28;20031;-90
2024/04/07 00:28:33;;;;;;;2.45;1.50;;;17.80;99.10;;;;;;5002812;28;20026;-94
2024/04/07 00:31:01;;;;;;;5.10;2.00;;;17.80;99.10;;;;;;4997710;28;20057;-92
2024/04/07 00:33:27;;;;;;;3.45;1.92;;;17.80;99.10;;;;;;4998308;28;20030;-91
2024/04/07 00:35:55;;;;;;;2.58;2.00;;;17.80;99.10;;;;;;4964759;28;20033;-91
2024/04/07 00:38:20;;;;;;;4.18;2.05;;;17.80;99.30;;;;;;4972494;28;20035;-92
2024/04/07 00:40:46;;;;;;;3.08;2.33;;;17.80;99.10;;;;;;4965754;28;20049;-93
2024/04/07 00:43:12;;;;;;;4.10;2.00;;;17.80;99.10;;;;;;4980806;28;20022;-92
2024/04/07 00:45:38;;;;;;;3.67;2.17;;;17.80;99.10;;;;;;4980482;28;20125;-92
2024/04/07 00:48:04;;;;;;;4.63;2.30;;;17.80;99.10;;;;;;4980882;28;20019;-91
2024/04/07 00:50:31;;;;;;;6.75;2.30;;;17.80;99.10;;;;;;4989620;28;20038;-92
2024/04/07 00:52:57;;;;;;;3.25;2.33;;;17.80;99.10;;;;;;4976731;28;20137;-92
2024/04/07 00:55:22;;;;;;;4.38;2.28;;;17.80;99.20;;;;;;4997492;28;20033;-92
2024/04/07 00:57:49;;;;;;;3.78;2.30;;;17.80;99.20;;;;;;5004124;28;20394;-92
2024/04/07 01:00:14;;;;;;;4.95;2.20;;;17.80;99.30;;;;;;4998049;28;20034;-91
2024/04/07 01:02:40;;;;;;;3.88;2.30;;;17.70;99.30;;;;;;4981304;28;20490;-94
2024/04/07 01:05:06;;;;;;;4.28;2.25;;;17.70;99.30;;;;;;4999173;28;20042;-92
2024/04/07 01:07:33;;;;;;;3.90;2.28;;;17.70;99.30;;;;;;4987110;28;20034;-91
2024/04/07 01:09:59;;;;;;;5.68;2.30;;;17.70;99.30;;;;;;5003408;28;20019;-87
2024/04/07 01:12:25;;;;;;;3.92;1.83;;;17.70;99.30;;;;;;5002781;28;20026;-90
2024/04/07 01:14:50;;;;;;;5.07;2.17;;;17.70;99.30;;;;;;4982604;28;20029;-87
2024/04/07 01:17:16;;;;;;;4.45;2.33;;;17.70;99.30;;;;;;4997145;28;20041;-93
2024/04/07 01:19:44;;;;;;;3.63;2.20;;;17.70;99.30;;;;;;4980168;28;20056;-93
2024/04/07 01:22:12;;;;;;;4.18;2.20;;;17.70;99.30;;;;;;4983836;28;20038;-92
2024/04/07 01:24:38;;;;;;;4.43;2.35;;;17.70;99.30;;;;;;5015847;28;20026;-93
2024/04/07 01:27:04;;;;;;;4.05;2.20;;;17.70;99.30;;;;;;4995499;28;20026;-91
2024/04/07 01:29:30;;;;;;;3.72;2.28;;;17.70;99.30;;;;;;4980237;28;20030;-91
2024/04/07 01:31:56;;;;;;;6.05;2.38;;;17.60;99.30;;;;;;4997039;28;20030;-91
2024/04/07 01:34:21;;;;;;;4.78;2.35;;;17.60;99.20;;;;;;4996218;28;20375;-91
2024/04/07 01:36:49;;;;;;;4.53;2.50;;;17.60;99.20;;;;;;4979748;28;20031;-91
2024/04/07 01:39:14;;;;;;;7.47;2.47;;;17.50;99.20;;;;;;4979407;28;20050;-91
2024/04/07 01:41:40;;;;;;;5.28;1.88;;;17.50;99.20;;;;;;4981378;28;20026;-91
2024/04/07 01:44:06;;;;;;;3.53;2.10;;;17.50;99.30;;;;;;4999185;28;20046;-90
2024/04/07 01:46:31;;;;;;;4.72;1.83;;;17.40;99.20;;;;;;4996107;28;20038;-90
2024/04/07 01:48:57;;;;;;;4.10;1.40;;;17.40;99.20;;;;;;4963274;28;20031;-91
2024/04/07 01:51:23;;;;;;;3.78;1.55;;;17.40;99.20;;;;;;4996491;28;20037;-91
2024/04/07 01:53:48;;;;;;;3.60;1.70;;;17.40;99.20;;;;;;4963573;28;20034;-92
2024/04/07 01:56:15;;;;;;;4.68;1.75;;;17.40;99.20;;;;;;4978906;28;20034;-91
2024/04/07 01:58:40;;;;;;;2.08;1.00;;;17.40;99.30;;;;;;4995433;28;20034;-90
2024/04/07 02:01:06;;;;;;;3.55;1.30;;;17.30;99.30;;;;;;4979448;28;20356;-90
2024/04/07 02:03:33;;;;;;;3.72;1.08;;;17.30;99.40;;;;;;4967031;28;20038;-90
2024/04/07 02:06:00;;;;;;;3.28;1.30;;;17.30;99.40;;;;;;4995571;28;20117;-90
2024/04/07 02:08:26;;;;;;;3.08;1.15;;;17.30;99.50;;;;;;4978578;28;20097;-91
2024/04/07 02:10:52;;;;;;;2.05;1.00;;;17.20;99.60;;;;;;4956940;28;20027;-91
2024/04/07 02:13:18;;;;;;;2.25;1.02;;;17.20;99.60;;;;;;4975672;28;20027;-91
2024/04/07 02:15:44;;;;;;;3.38;1.30;;;17.20;99.70;;;;;;4978533;28;20035;-93
2024/04/07 02:18:10;;;;;;;2.78;1.10;;;17.10;99.70;;;;;;4995465;28;20066;-91
2024/04/07 02:20:36;;;;;;;4.63;1.15;;;17.20;99.80;;;;;;4978732;28;20103;-93
2024/04/07 02:23:04;;;;;;;2.35;1.10;;;17.10;99.80;;;;;;4996748;28;20030;-92
2024/04/07 02:25:29;;;;;;;1.83;1.08;;;17.10;99.90;;;;;;4994990;28;20022;-91
2024/04/07 02:27:55;;;;;;;2.28;0.82;;;17.10;99.90;;;;;;4997015;28;20448;-91
2024/04/07 02:30:21;;;;;;;2.65;1.00;;;17.00;99.90;;;;;;4981102;28;20429;-90
2024/04/07 02:32:47;;;;;;;3.42;0.90;;;17.00;99.90;;;;;;4967082;28;20395;-91
2024/04/07 02:35:13;;;;;;;3.05;0.88;;;17.00;99.90;;;;;;4982346;28;20085;-90
2024/04/07 02:37:39;;;;;;;4.32;1.08;;;17.00;99.90;;;;;;4978892;28;20022;-92
2024/04/07 02:40:08;;;;;;;2.45;1.02;;;17.00;99.90;;;;;;5003207;28;20096;-91
2024/04/07 02:42:34;;;;;;;1.75;0.80;;;17.00;99.90;;;;;;4962938;28;20113;-92
2024/04/07 02:50:28;;;;;;;2.33;1.00;;;16.90;99.90;;;;;;5038348;28;20052;-90
2024/04/07 02:52:53;;;;;;;2.22;1.00;;;16.90;99.90;;;;;;5029340;28;20031;-92
2024/04/07 02:55:20;;;;;;;1.90;1.00;;;16.90;99.90;;;;;;5018125;28;20019;-91
2024/04/07 02:57:45;;;;;;;1.45;0.70;;;16.80;99.90;;;;;;4999164;28;20034;-93
2024/04/07 03:00:13;;;;;;;2.35;1.00;;;16.80;99.90;;;;;;4978964;28;20034;-92
2024/04/07 03:02:43;;;;;;;2.65;1.00;;;16.80;99.90;;;;;;4979117;28;20026;-93
2024/04/07 03:05:10;;;;;;;2.55;0.93;;;16.80;99.90;;;;;;4978536;28;20018;-92
2024/04/07 03:07:36;;;;;;;1.83;0.90;;;16.80;99.90;;;;;;4962761;28;20023;-92
2024/04/07 03:10:07;;;;;;;1.73;0.68;;;16.80;99.90;;;;;;4980008;28;20038;-91
2024/04/07 03:12:33;;;;;;;2.17;1.05;;;16.80;99.90;;;;;;4972223;28;20031;-92
2024/04/07 03:15:03;;;;;;;1.70;0.68;;;16.80;99.90;;;;;;4969355;28;20459;-91
2024/04/07 03:17:31;;;;;;;1.00;0.70;;;16.70;99.90;;;;;;4943355;28;20031;-92
2024/04/07 03:19:57;;;;;;;3.38;0.98;;;16.70;99.90;;;;;;4975847;28;20038;-92
2024/04/07 03:22:23;;;;;;;3.30;0.88;;;16.70;99.80;;;;;;4987088;28;20110;-93
2024/04/07 03:24:49;;;;;;;1.55;0.80;;;16.70;99.70;;;;;;4978469;28;20026;-90
2024/04/07 03:27:14;;;;;;;3.13;0.70;;;16.70;99.70;;;;;;4973812;28;20024;-91
2024/04/07 03:29:41;;;;;;;0.70;0.60;;;16.70;99.70;;;;;;4962189;28;20470;-92
2024/04/07 03:32:07;;;;;;;1.40;0.65;;;16.70;99.60;;;;;;4978139;28;20526;-88
2024/04/07 03:34:32;;;;;;;1.38;0.63;;;16.70;99.60;;;;;;4994117;28;20029;-91
2024/04/07 03:36:58;;;;;;;0.85;0.50;;;16.70;99.50;;;;;;4977948;28;20038;-87
2024/04/07 03:39:24;;;;;;;1.27;0.60;;;16.70;99.40;;;;;;4977888;28;20438;-88
2024/04/07 03:41:52;;;;;;;3.53;0.70;;;16.70;99.40;;;;;;4994019;28;20550;-88
2024/04/07 03:44:20;;;;;;;0.73;0.35;;;16.70;99.30;;;;;;4994495;28;20482;-87
2024/04/07 03:46:46;;;;;;;0.65;0.57;;;16.70;99.30;;;;;;4978571;28;20057;-89
2024/04/07 03:49:36;;;;;;;3.28;0.57;;;16.70;99.20;;;;;;4995016;28;20033;-87
2024/04/07 03:52:04;;;;;;;1.58;0.60;;;16.70;99.20;;;;;;4974562;28;20081;-88
2024/04/07 03:54:30;;;;;;;1.45;0.50;;;16.70;99.20;;;;;;4993768;28;20138;-88
2024/04/07 03:56:58;;;;;;;1.23;0.57;;;16.70;99.20;;;;;;4994786;28;20047;-88
2024/04/07 03:59:28;;;;;;;1.73;0.50;;;16.70;99.20;;;;;;4994003;28;20462;-87
2024/04/07 04:01:53;;;;;;;2.38;0.70;;;16.70;99.10;;;;;;4995160;28;20057;-89
2024/04/07 04:04:19;;;;;;;1.27;0.50;;;16.70;98.90;;;;;;4993998;28;20450;-87
2024/04/07 04:06:48;;;;;;;1.65;0.47;;;16.70;98.90;;;;;;4994926;28;20046;-88
2024/04/07 04:09:16;;;;;;;1.02;0.40;;;16.80;98.80;;;;;;4977260;28;20121;-88
2024/04/07 04:11:44;;;;;;;1.05;0.45;;;16.70;98.70;;;;;;4993573;28;20092;-87
2024/04/07 04:14:17;;;;;;;0.77;0.40;;;16.70;98.70;;;;;;4977545;28;20023;-88
2024/04/07 04:16:43;;;;;;;0.50;0.20;;;16.70;98.60;;;;;;4995394;28;20018;-89
2024/04/07 04:19:12;;;;;;;3.65;0.80;;;16.70;98.50;;;;;;4982060;28;20051;-88
2024/04/07 04:21:41;;;;;;;1.40;0.47;;;16.70;98.50;;;;;;4957974;28;20038;-88
2024/04/07 04:24:06;;;;;;;1.20;0.60;;;16.70;98.40;;;;;;4958719;28;20026;-88
2024/04/07 04:26:35;;;;;;;1.08;0.30;;;16.70;98.30;;;;;;4958937;28;20015;-88
2024/04/07 04:29:06;;;;;;;0.30;0.17;;;16.60;98.20;;;;;;4974837;28;20502;-89
2024/04/07 04:31:32;;;;;;;1.02;0.30;;;16.70;98.10;;;;;;4974466;28;20024;-88
2024/04/07 04:34:03;;;;;;;0.22;0.22;;;16.70;98.00;;;;;;4985341;28;20023;-87
2024/04/07 04:36:29;;;;;;;0.82;0.20;;;16.70;97.90;;;;;;4984937;28;20038;-88
2024/04/07 04:38:55;;;;;;;0.50;0.50;;;16.70;98.10;;;;;;5001902;28;20007;-88
2024/04/07 04:41:23;;;;;;;1.00;0.20;;;16.70;97.80;;;;;;4979210;28;20494;-88
2024/04/07 04:43:51;;;;;;;0.77;0.30;;;16.70;97.80;;;;;;4962299;28;20031;-88
2024/04/07 04:46:20;;;;;;;0.63;0.20;;;16.70;97.70;;;;;;4977837;28;20064;-87
2024/04/07 04:48:48;;;;;;;0.17;0.15;;;16.70;97.70;;;;;;4961771;28;20015;-87
2024/04/07 04:51:17;;;;;;;0.40;0.30;;;16.70;97.60;;;;;;4961486;28;20031;-88
2024/04/07 04:54:06;;;;;;;0.40;0.20;;;16.70;97.50;;;;;;4961845;28;20061;-87
2024/04/07 04:56:39;;;;;;;0.38;0.30;;;16.70;97.50;;;;;;4977205;28;20395;-87
2024/04/07 04:59:08;;;;;;;0.57;0.30;;;16.70;97.40;;;;;;4977523;28;20026;-86
2024/04/07 05:01:34;;;;;;;0.70;0.30;;;16.70;97.40;;;;;;4961273;28;20031;-88
2024/04/07 05:04:03;;;;;;;0.60;0.17;;;16.70;97.30;;;;;;4961470;28;20031;-86
2024/04/07 05:06:40;;;;;;;0.20;0.20;;;16.70;97.30;;;;;;4977195;28;20027;-87
2024/04/07 05:09:05;;;;;;;0.20;0.10;;;16.70;97.20;;;;;;4961497;28;20031;-88
2024/04/07 05:11:34;;;;;;;1.02;0.28;;;16.70;97.10;;;;;;4961675;28;20120;-87
2024/04/07 05:14:00;;;;;;;1.38;0.40;;;16.70;97.00;;;;;;4963725;28;20470;-86
2024/04/07 05:16:26;;;;;;;1.85;0.43;;;16.60;96.70;;;;;;4984146;28;20019;-87
2024/04/07 05:18:52;;;;;;;0.40;0.30;;;16.60;96.70;;;;;;4992679;28;20121;-87
2024/04/07 05:21:42;;;;;;;0.40;0.20;;;16.60;96.70;;;;;;5000532;28;20093;-88
2024/04/07 05:24:09;;;;;;;0.77;0.30;;;16.70;96.70;;;;;;4973433;28;20034;-87
2024/04/07 05:26:35;;;;;;;0.98;0.40;;;16.60;96.60;;;;;;4996029;28;20072;-88
2024/04/07 05:29:03;;;;;;;2.28;0.30;;;16.60;96.60;;;;;;4979644;28;20459;-88
2024/04/07 05:31:45;;;;;;;0.57;0.28;;;16.60;96.60;;;;;;4979237;28;20386;-88
2024/04/07 05:34:11;;;;;;;0.55;0.40;;;16.60;96.60;;;;;;4979784;28;20061;-88
2024/04/07 05:36:37;;;;;;;1.77;0.30;;;16.60;96.50;;;;;;4995600;28;20075;-87
2024/04/07 05:39:03;;;;;;;1.10;0.25;;;16.60;96.50;;;;;;4979798;28;20473;-89
2024/04/07 05:41:33;;;;;;;1.02;0.50;;;16.60;96.50;;;;;;4995524;28;20034;-86
2024/04/07 05:43:59;;;;;;;1.38;0.38;;;16.60;96.50;;;;;;4979711;28;20394;-87
2024/04/07 05:46:30;;;;;;;0.60;0.30;;;16.60;96.60;;;;;;4979375;28;20023;-87
2024/04/07 05:49:01;;;;;;;1.70;0.30;;;16.60;96.60;;;;;;4979792;28;20030;-89
2024/04/07 05:51:29;;;;;;;0.60;0.40;;;16.60;96.60;;;;;;4980014;28;20039;-89
2024/04/07 05:53:57;;;;;;;1.13;0.30;;;16.60;96.60;;;;;;4980118;28;20030;-89
2024/04/07 05:56:26;;;;;;;0.30;0.30;;;16.60;96.70;;;;;;4996484;28;20022;-87
2024/04/07 05:59:22;;;;;;;0.75;0.28;;;16.60;96.60;;;;;;4980270;28;20026;-90
2024/04/07 06:01:59;;;;;;;1.30;0.40;;;16.60;96.60;;;;;;4965624;28;20031;-93
2024/04/07 06:04:25;;;;;;;0.95;0.30;;;16.70;96.70;;;;;;4981202;28;20026;-90
2024/04/07 06:06:56;;;;;;;1.23;0.45;;;16.70;96.70;;;;;;4996470;28;20014;-91
2024/04/07 06:09:27;;;;;;;0.13;0.10;;;16.70;96.60;;;;;;4980221;28;20445;-90
2024/04/07 06:12:04;;;;;;;0.57;0.30;;;16.70;96.70;;;;;;4964858;28;20383;-90
2024/04/07 06:14:32;;;;;;;1.52;0.35;;;16.70;96.90;;;;;;4985978;28;20037;-88
2024/04/07 06:16:57;;;;;;;1.10;0.40;;;16.60;96.60;;;;;;5002532;28;20023;-88
2024/04/07 06:19:33;;;;;;;1.73;0.32;;;16.70;96.70;;;;;;5002034;28;20054;-90
2024/04/07 06:22:02;;;;;;;1.25;0.40;;;16.70;96.70;;;;;;5019121;28;20122;-89
2024/04/07 06:24:35;;;;;;;0.95;0.40;;;16.60;96.80;;;;;;5002680;28;20038;-88
2024/04/07 06:27:06;;;;;;;1.55;0.40;;;16.60;96.80;;;;;;4983295;28;20054;-90
2024/04/07 06:29:42;;;;;;;1.08;0.30;;;16.60;96.90;;;;;;4981031;28;20030;-89
2024/04/07 06:32:08;;;;;;;0.70;0.40;;;16.60;96.90;;;;;;4997215;28;20022;-93
2024/04/07 06:34:33;;;;;;;0.93;0.40;;;16.60;96.90;;;;;;4980753;28;20018;-91
2024/04/07 06:37:20;;;;;;;0.85;0.40;;;16.60;97.00;;;;;;5001136;28;20057;-90
2024/04/07 06:39:47;;;;;;;0.73;0.28;;;16.60;97.00;;;;;;5005249;28;20031;-93
2024/04/07 06:42:26;;;;;;;2.58;0.65;;;16.60;97.00;;;;;;4985753;28;20022;-89
2024/04/07 06:44:55;;;;;;;0.73;0.35;;;16.50;97.00;;;;;;4982289;28;20034;-91
2024/04/07 06:47:21;;;;;;;1.17;0.32;;;16.60;97.10;;;;;;4984418;28;20018;-89
2024/04/07 06:50:05;;;;;;;0.90;0.30;;;16.50;97.10;;;;;;4984484;28;20030;-89
2024/04/07 06:52:34;;;;;;;1.27;0.40;;;16.50;97.20;;;;;;4980127;28;20113;-89
2024/04/07 06:55:00;;;;;;;2.33;0.30;;;16.50;97.20;;;;;;4982932;28;20053;-88
2024/04/07 06:57:28;;;;;;;1.30;0.45;;;16.50;97.30;;;;;;4986927;28;20018;-91
2024/04/07 06:59:55;;;;;;;1.17;0.30;;;16.60;97.30;;;;;;5001683;28;20026;-91
2024/04/07 07:02:21;;;;;;;1.67;0.45;;;16.60;97.30;;;;;;4981117;28;20061;-91
2024/04/07 07:05:02;;;;;;;0.65;0.32;;;16.60;97.30;;;;;;4999009;28;20588;-91
2024/04/07 07:07:28;;;;;;;1.08;0.40;;;16.60;97.60;;;;;;4979658;28;20069;-92
2024/04/07 07:09:57;;;;;;;1.35;0.60;;;16.60;97.60;;;;;;4996998;28;20022;-89
2024/04/07 07:12:23;;;;;;;0.60;0.30;;;16.60;97.40;;;;;;4980661;28;20061;-92
2024/04/07 07:14:51;;;;;;;1.27;0.47;;;16.70;97.50;;;;;;4979063;28;20038;-92
2024/04/07 07:17:17;;;;;;;1.58;0.65;;;16.70;97.70;;;;;;4979369;28;20092;-90
2024/04/07 07:19:42;;;;;;;1.17;0.40;;;16.80;97.50;;;;;;4995792;28;20104;-93
2024/04/07 07:22:08;;;;;;;1.05;0.50;;;16.70;97.50;;;;;;4994711;28;20080;-92
2024/04/07 07:24:39;;;;;;;2.33;0.50;;;16.70;97.50;;;;;;4995913;28;20022;-91
2024/04/07 07:27:05;;;;;;;1.67;0.50;;;16.60;97.50;;;;;;4994656;28;20027;-89
2024/04/07 07:29:34;;;;;;;1.02;0.50;;;16.70;97.60;;;;;;4979293;28;20122;-92
2024/04/07 07:32:00;;;;;;;0.85;0.52;;;16.70;97.60;;;;;;4998282;28;20027;-91
2024/04/07 07:34:38;;;;;;;;;;;;;;;;;;;;;
2024/04/07 07:37:06;;;;;;;1.13;0.30;;;16.70;97.70;;;;;;4996315;28;20386;-91
2024/04/07 07:39:37;;;;;;;1.92;0.60;;;16.70;97.70;;;;;;4978531;28;20121;-92
2024/04/07 07:42:05;;;;;;;1.63;0.70;;;16.70;97.70;;;;;;4979491;28;20058;-91
2024/04/07 07:44:33;;;;;;;2.08;0.50;;;16.70;97.80;;;;;;4977759;28;20058;-93
2024/04/07 07:47:02;;;;;;;1.58;0.50;;;16.70;97.80;;;;;;4996013;28;20029;-90
2024/04/07 07:49:48;;;;;;;1.10;0.50;;;16.70;97.90;;;;;;4994924;28;20011;-93
2024/04/07 07:52:17;;;;;;;0.95;0.35;;;16.70;97.90;;;;;;4979590;28;20032;-93
2024/04/07 07:54:43;;;;;;;2.10;0.50;;;16.70;98.20;;;;;;4999014;28;20040;-91
2024/04/07 07:57:17;;;;;;;0.88;0.45;;;16.80;98.00;;;;;;5009488;28;20034;-90
2024/04/07 07:59:53;;;;;;;1.63;0.50;;;16.90;98.00;;;;;;5018134;28;20090;-89
2024/04/07 08:02:19;;;;;;;1.63;0.45;;;17.00;98.00;;;;;;5018306;28;20102;-92
2024/04/07 08:04:54;;;;;;;2.78;0.82;;;17.10;98.00;;;;;;5001755;28;20024;-90
2024/04/07 08:07:23;;;;;;;1.73;0.50;;;17.20;98.00;;;;;;5004452;28;20014;-90
2024/04/07 08:10:19;;;;;;;;;;;;;;;;;;;;;
2024/04/07 08:12:48;;;;;;;3.72;0.80;;;17.30;97.80;;;;;;5000316;28;20097;-91
2024/04/07 08:15:14;;;;;;;3.08;0.52;;;17.40;97.80;;;;;;4999225;28;20122;-92
2024/04/07 08:17:40;;;;;;;1.05;0.55;;;17.40;97.70;;;;;;5000659;28;20074;-89
2024/04/07 08:20:09;;;;;;;3.80;0.70;;;17.50;97.80;;;;;;4974277;28;20054;-90
2024/04/07 08:22:37;;;;;;;2.20;0.80;;;17.50;97.80;;;;;;4993062;28;20026;-91
2024/04/07 08:25:06;;;;;;;1.92;0.95;;;17.50;97.70;;;;;;4970647;28;20023;-89
2024/04/07 08:27:34;;;;;;;1.95;0.82;;;17.60;97.80;;;;;;4981827;28;20407;-86
2024/04/07 08:30:00;;;;;;;2.25;0.88;;;17.70;97.80;;;;;;4980799;28;20046;-89
2024/04/07 08:32:51;;;;;;;4.57;0.80;;;17.70;97.80;;;;;;4980193;28;20019;-91
2024/04/07 08:35:17;;;;;;;2.85;0.70;;;17.70;97.70;;;;;;4963694;28;20537;-91
2024/04/07 08:37:47;;;;;;;2.28;0.80;;;17.80;97.70;;;;;;4979460;28;20023;-91
2024/04/07 08:40:13;;;;;;;1.25;0.57;;;17.80;97.70;;;;;;4962397;28;20090;-90
2024/04/07 08:42:40;;;;;;;2.65;0.90;;;17.80;97.70;;;;;;4979618;28;20026;-91
2024/04/07 08:45:10;;;;;;;2.22;0.90;;;17.80;97.60;;;;;;4962316;28;20030;-93
2024/04/07 08:47:37;;;;;;;1.35;0.63;;;17.90;97.60;;;;;;4964426;28;20030;-91
2024/04/07 08:50:09;;;;;;;1.95;0.80;;;17.80;97.70;;;;;;4979594;28;20026;-90
2024/04/07 08:52:38;;;;;;;2.58;1.00;;;17.90;97.70;;;;;;4979978;28;20379;-92
2024/04/07 08:55:05;;;;;;;3.20;0.95;;;18.00;97.70;;;;;;4962453;28;20046;-90
2024/04/07 08:57:34;;;;;;;2.80;1.00;;;18.00;97.60;;;;;;4961986;28;20018;-92
2024/04/07 09:00:06;;;;;;;1.50;0.77;;;18.10;97.50;;;;;;4961719;28;20035;-91
2024/04/07 09:02:39;;;;;;;2.75;0.93;;;18.10;97.50;;;;;;4961544;28;20106;-94
2024/04/07 09:05:07;;;;;;;1.92;0.77;;;18.20;97.50;;;;;;4979090;28;20165;-88
2024/04/07 09:07:33;;;;;;;2.03;0.70;;;18.20;97.50;;;;;;4962494;28;20019;-92
2024/04/07 09:10:02;;;;;;;1.75;0.75;;;18.30;97.30;;;;;;4961058;28;20030;-89
2024/04/07 09:12:30;;;;;;;3.00;0.90;;;18.30;97.30;;;;;;4961820;28;20034;-90
2024/04/07 09:14:58;;;;;;;1.73;0.70;;;18.30;97.20;;;;;;4961354;28;20034;-90
2024/04/07 09:17:29;;;;;;;1.88;0.80;;;18.40;97.10;;;;;;4960740;28;20034;-93
2024/04/07 09:19:55;;;;;;;3.60;1.00;;;18.50;96.90;;;;;;4984480;28;20509;-90
2024/04/07 09:22:28;;;;;;;3.65;0.70;;;18.50;96.80;;;;;;4981075;28;20038;-90
2024/04/07 09:25:03;;;;;;;2.75;0.70;;;18.50;96.70;;;;;;4981507;28;20026;-90
2024/04/07 09:27:34;;;;;;;1.20;0.60;;;18.50;96.70;;;;;;4980884;28;20025;-91
2024/04/07 09:30:04;;;;;;;2.45;0.90;;;18.50;96.80;;;;;;4980767;28;20030;-92
2024/04/07 09:32:36;;;;;;;2.15;0.60;;;18.50;96.80;;;;;;4981249;28;20022;-91
2024/04/07 09:35:03;;;;;;;1.77;0.60;;;18.50;96.70;;;;;;4997798;28;20038;-90
2024/04/07 09:37:38;;;;;;;2.65;0.95;;;18.60;96.80;;;;;;4981785;28;20030;-88
2024/04/07 09:40:07;;;;;;;2.15;0.57;;;18.60;96.70;;;;;;4997648;28;20019;-91
2024/04/07 09:42:37;;;;;;;2.45;0.93;;;18.70;96.80;;;;;;4999349;28;20117;-92
2024/04/07 09:45:09;;;;;;;1.50;0.65;;;18.80;96.70;;;;;;4999257;28;20043;-92
2024/04/07 09:47:38;;;;;;;2.85;1.25;;;18.90;96.70;;;;;;5020312;28;20050;-92
2024/04/07 09:50:24;;;;;;;2.05;0.60;;;18.90;96.40;;;;;;5003226;28;20029;-88
2024/04/07 09:53:13;;;;;;;3.30;1.10;;;19.00;96.20;;;;;;4990233;28;20032;-87
2024/04/07 09:55:42;;;;;;;2.17;0.57;;;19.00;96.00;;;;;;4993704;28;20050;-92
2024/04/07 09:58:16;;;;;;;1.05;0.63;;;19.00;96.10;;;;;;4998157;28;20023;-91
2024/04/07 10:00:55;;;;;;;2.58;0.80;;;19.00;96.10;;;;;;4980915;28;20049;-92
2024/04/07 10:03:25;;;;;;;1.20;0.43;;;19.10;96.00;;;;;;4980146;28;20026;-90
2024/04/07 10:05:54;;;;;;;2.78;0.70;;;19.20;96.10;;;;;;4997708;28;20026;-89
2024/04/07 10:08:22;;;;;;;3.17;1.20;;;19.20;95.90;;;;;;4980673;28;20030;-90
2024/04/07 10:10:48;;;;;;;3.35;0.90;;;19.20;95.90;;;;;;4996886;28;20066;-91
2024/04/07 10:13:17;;;;;;;1.38;0.50;;;19.20;95.80;;;;;;4997317;28;20023;-90
2024/04/07 10:15:49;;;;;;;1.55;0.88;;;19.20;95.70;;;;;;4997634;28;20034;-90
2024/04/07 10:18:22;;;;;;;2.17;0.75;;;19.20;95.60;;;;;;4981629;28;20049;-90
2024/04/07 10:20:55;;;;;;;1.42;0.70;;;19.20;95.70;;;;;;4967012;28;20061;-89
2024/04/07 10:23:25;;;;;;;3.30;0.80;;;19.20;95.70;;;;;;4977725;28;20030;-90
2024/04/07 10:26:03;;;;;;;1.42;0.52;;;19.20;95.70;;;;;;4980057;28;20129;-91
2024/04/07 10:28:57;;;;;;;2.25;0.82;;;19.20;95.60;;;;;;4960795;28;20027;-91
2024/04/07 10:31:27;;;;;;;1.65;0.55;;;19.20;95.50;;;;;;4964506;28;20027;-92
2024/04/07 10:33:56;;;;;;;2.60;0.73;;;19.20;95.50;;;;;;4962275;28;20027;-91
2024/04/07 10:36:23;;;;;;;2.38;0.73;;;19.20;95.50;;;;;;4963731;28;20039;-91
2024/04/07 10:38:57;;;;;;;1.92;0.52;;;19.30;95.50;;;;;;4961616;28;20051;-93
2024/04/07 10:41:33;;;;;;;1.98;0.60;;;19.30;95.40;;;;;;4962434;28;20023;-93
2024/04/07 10:44:09;;;;;;;1.13;0.40;;;19.40;95.30;;;;;;4981012;28;20027;-92
2024/04/07 10:46:34;;;;;;;3.08;0.80;;;19.50;95.40;;;;;;4978513;28;20078;-91
2024/04/07 10:49:11;;;;;;;2.25;0.77;;;19.60;95.40;;;;;;4961470;28;20066;-90
2024/04/07 10:51:46;;;;;;;0.60;0.50;;;19.60;95.20;;;;;;4961195;28;20035;-91
2024/04/07 10:54:15;;;;;;;1.23;0.57;;;19.70;95.10;;;;;;4975539;28;20034;-90
2024/04/07 10:56:41;;;;;;;1.80;0.88;;;19.80;94.60;;;;;;4960114;28;20022;-91
2024/04/07 10:59:07;;;;;;;1.02;0.50;;;19.80;94.10;;;;;;4959842;28;20026;-90
2024/04/07 11:01:41;;;;;;;1.77;0.50;;;19.80;94.10;;;;;;4959581;28;20077;-91
2024/04/07 11:04:12;;;;;;;1.40;0.60;;;19.80;93.80;;;;;;4976171;28;20519;-91
2024/04/07 11:06:41;;;;;;;;;;;19.90;93.70;;;;;;4944833;28;20069;-91
2024/04/07 11:09:10;;;;;;;1.55;0.70;;;19.90;93.60;;;;;;4959923;28;20359;-88
2024/04/07 11:11:42;;;;;;;1.75;0.80;;;19.80;93.50;;;;;;4959835;28;20059;-91
2024/04/07 11:14:16;;;;;;;2.00;0.60;;;19.80;93.40;;;;;;4959336;28;20035;-88
2024/04/07 11:16:44;;;;;;;2.65;0.88;;;19.90;93.30;;;;;;4959854;28;20022;-89
2024/04/07 11:19:19;;;;;;;2.85;0.98;;;19.90;93.30;;;;;;4977873;28;20479;-88
2024/04/07 11:21:47;;;;;;;0.98;0.50;;;20.00;93.30;;;;;;4979284;28;20026;-88
2024/04/07 11:24:13;;;;;;;1.65;0.57;;;20.00;93.20;;;;;;4979373;28;20054;-86
2024/04/07 11:26:39;;;;;;;1.33;0.60;;;20.00;92.80;;;;;;4981169;28;20022;-89
2024/04/07 11:29:04;;;;;;;1.63;0.40;;;20.00;92.80;;;;;;5015773;28;20019;-89
2024/04/07 11:31:53;;;;;;;1.42;0.50;;;20.10;92.60;;;;;;5017746;28;20033;-85
2024/04/07 11:34:22;;;;;;;0.85;0.40;;;20.20;92.50;;;;;;5001555;28;20011;-89
2024/04/07 11:36:56;;;;;;;1.17;0.55;;;20.20;92.40;;;;;;5018639;28;20022;-89
2024/04/07 11:39:24;;;;;;;1.77;0.82;;;20.30;92.20;;;;;;5020046;28;20086;-89
2024/04/07 11:41:52;;;;;;;0.52;0.40;;;20.30;92.10;;;;;;5022765;28;20102;-89
2024/04/07 11:44:21;;;;;;;0.98;0.50;;;20.30;92.30;;;;;;5022422;28;20049;-89
2024/04/07 11:46:49;;;;;;;1.95;0.50;;;20.40;92.10;;;;;;5003666;28;20525;-89
2024/04/07 11:49:15;;;;;;;2.17;0.70;;;20.40;92.10;;;;;;4984316;28;20088;-88
2024/04/07 11:51:43;;;;;;;0.88;0.47;;;20.50;91.90;;;;;;4982430;28;20034;-89
2024/04/07 11:54:11;;;;;;;2.08;0.43;;;20.50;91.70;;;;;;4982789;28;20053;-90
2024/04/07 11:56:45;;;;;;;1.98;0.40;;;20.50;91.60;;;;;;4998950;28;20125;-89
2024/04/07 11:59:14;;;;;;;0.95;0.50;;;20.60;91.70;;;;;;5000493;28;20029;-88
2024/04/07 12:01:40;;;;;;;1.42;0.52;;;20.60;91.50;;;;;;4999367;28;20029;-88
2024/04/07 12:04:05;;;;;;;1.13;0.50;;;20.70;91.10;;;;;;4997924;28;20031;-88
2024/04/07 12:06:36;;;;;;;2.38;0.55;;;20.70;90.90;;;;;;4999227;28;20034;-89
2024/04/07 12:09:05;;;;;;;0.60;0.40;;;20.70;90.80;;;;;;4981229;28;20355;-88
2024/04/07 12:11:40;;;;;;;1.40;0.50;;;20.80;90.80;;;;;;4998917;28;20074;-89
2024/04/07 12:14:06;;;;;;;1.30;0.47;;;20.90;90.80;;;;;;4981169;28;20101;-88
2024/04/07 12:16:42;;;;;;;1.35;0.50;;;20.90;90.90;;;;;;4997833;28;20070;-88
2024/04/07 12:19:13;;;;;;;2.22;0.50;;;21.00;91.00;;;;;;4980517;28;20501;-91
2024/04/07 12:21:41;;;;;;;1.10;0.55;;;21.10;90.80;;;;;;4962570;28;20031;-87
2024/04/07 12:24:07;;;;;;;0.73;0.28;;;21.10;90.80;;;;;;4963305;28;20033;-88
2024/04/07 12:26:37;;;;;;;1.15;0.57;;;21.10;90.80;;;;;;4963105;28;20106;-90
2024/04/07 12:29:03;;;;;;;1.50;0.50;;;21.10;90.60;;;;;;4980518;28;20081;-89
2024/04/07 12:31:29;;;;;;;1.00;0.40;;;21.20;90.40;;;;;;4962963;28;20758;-90
2024/04/07 12:33:57;;;;;;;0.73;0.50;;;21.20;90.30;;;;;;4978725;28;20038;-90
2024/04/07 12:36:23;;;;;;;1.17;0.50;;;21.30;90.20;;;;;;4979476;28;20022;-89
2024/04/07 12:38:51;;;;;;;1.92;0.55;;;21.30;90.10;;;;;;4979668;28;20073;-89
2024/04/07 12:41:16;;;;;;;1.02;0.43;;;21.30;90.10;;;;;;4961858;28;20043;-88
2024/04/07 12:43:42;;;;;;;2.03;0.40;;;21.30;90.10;;;;;;4961401;28;20031;-90
2024/04/07 12:46:13;;;;;;;1.23;0.60;;;21.30;90.10;;;;;;4962015;28;20031;-89
2024/04/07 12:48:42;;;;;;;1.35;0.60;;;21.30;89.40;;;;;;4961085;28;20417;-87
2024/04/07 12:51:09;;;;;;;0.40;0.35;;;21.30;89.00;;;;;;4961120;28;20483;-88
2024/04/07 12:53:35;;;;;;;0.47;0.38;;;21.30;88.60;;;;;;4961474;28;20050;-88
2024/04/07 12:56:04;;;;;;;0.47;0.30;;;21.40;88.30;;;;;;4978812;28;20075;-87
2024/04/07 12:58:32;;;;;;;1.60;0.50;;;21.40;87.80;;;;;;4977996;28;20467;-88
2024/04/07 13:01:16;;;;;;;1.45;0.38;;;21.40;86.90;;;;;;4961195;28;20031;-90
2024/04/07 13:03:42;;;;;;;1.45;0.40;;;21.40;86.60;;;;;;4961851;28;20031;-89
2024/04/07 13:06:08;;;;;;;0.70;0.40;;;21.40;85.50;;;;;;4961520;28;20049;-89